createdAt,value
2023-02-25T00:02:09.559Z,51.69
2023-02-25T00:07:11.108Z,53.15
2023-02-25T00:12:12.554Z,51.85
2023-02-25T00:17:14.089Z,52.54
2023-02-25T00:22:15.563Z,52.92
2023-02-25T00:27:17.151Z,52.93
2023-02-25T00:32:18.948Z,51.97
2023-02-25T00:37:20.607Z,52.40
2023-02-25T00:42:22.144Z,54.87
2023-02-25T00:47:23.635Z,53.80
2023-02-25T00:52:25.089Z,53.07
2023-02-25T00:57:26.554Z,52.32
2023-02-25T01:02:28.037Z,51.98
2023-02-25T01:07:29.495Z,51.61
2023-02-25T01:12:30.957Z,52.97
2023-02-25T01:17:32.415Z,53.11
2023-02-25T01:22:33.876Z,50.78
2023-02-25T01:27:35.330Z,50.85
2023-02-25T01:32:36.913Z,53.88
2023-02-25T01:37:38.456Z,53.04
2023-02-25T01:42:39.924Z,54.24
2023-02-25T01:47:41.429Z,52.67
2023-02-25T01:52:42.912Z,55.57
2023-02-25T01:57:44.419Z,53.61
2023-02-25T02:02:47.180Z,54.01
2023-02-25T02:07:48.698Z,54.66
2023-02-25T02:12:50.158Z,52.03
2023-02-25T02:17:56.464Z,56.90
2023-02-25T02:23:22.029Z,57.28
2023-02-25T02:28:50.805Z,57.27
2023-02-25T02:34:29.851Z,56.73
2023-02-25T02:39:53.354Z,55.15
2023-02-25T02:45:01.093Z,54.51
2023-02-25T02:50:10.037Z,53.14
2023-02-25T02:55:22.152Z,52.77
2023-02-25T03:00:25.690Z,52.58
2023-02-25T03:05:27.787Z,52.23
2023-02-25T03:10:29.326Z,52.50
2023-02-25T03:15:30.787Z,52.78
2023-02-25T03:20:42.734Z,52.39
2023-02-25T03:26:24.181Z,52.46
2023-02-25T03:31:30.048Z,53.27
2023-02-25T03:36:33.449Z,53.30
2023-02-25T03:41:36.117Z,53.17
2023-02-25T03:46:37.577Z,51.73
2023-02-25T03:51:39.770Z,52.58
2023-02-25T03:56:45.132Z,51.94
2023-02-25T04:01:47.649Z,51.29
2023-02-25T04:06:49.672Z,50.15
2023-02-25T04:11:51.140Z,50.91
2023-02-25T04:16:52.591Z,49.41
2023-02-25T04:21:54.071Z,49.90
2023-02-25T04:26:58.438Z,50.06
2023-02-25T04:32:00.085Z,50.30
2023-02-25T04:37:04.684Z,49.45
2023-02-25T04:42:06.208Z,52.22
2023-02-25T04:47:08.529Z,49.64
2023-02-25T04:52:13.721Z,49.84
2023-02-25T04:57:15.180Z,50.19
2023-02-25T05:02:16.658Z,48.57
2023-02-25T05:07:18.127Z,47.84
2023-02-25T05:12:19.618Z,46.89
2023-02-25T05:17:21.107Z,45.46
2023-02-25T05:22:22.812Z,45.07
2023-02-25T05:27:24.296Z,44.71
2023-02-25T05:32:27.002Z,45.23
2023-02-25T05:37:28.526Z,43.55
2023-02-25T05:42:29.980Z,45.74
2023-02-25T05:47:31.432Z,45.44
2023-02-25T05:52:32.939Z,44.12
2023-02-25T05:57:34.431Z,47.72
2023-02-25T06:02:36.306Z,45.25
2023-02-25T06:07:37.768Z,44.97
2023-02-25T06:12:39.246Z,42.98
2023-02-25T06:17:40.773Z,44.58
2023-02-25T06:22:42.906Z,44.70
2023-02-25T06:27:44.360Z,45.24
2023-02-25T06:32:45.860Z,49.16
2023-02-25T06:37:47.436Z,47.61
2023-02-25T06:42:48.902Z,47.65
2023-02-25T06:47:50.368Z,44.56
2023-02-25T06:52:51.811Z,44.83
2023-02-25T06:57:54.654Z,44.43
2023-02-25T07:02:56.097Z,44.78
2023-02-25T07:07:57.544Z,42.34
2023-02-25T07:12:59.018Z,43.63
2023-02-25T07:18:00.544Z,43.62
2023-02-25T07:23:05.155Z,43.35
2023-02-25T07:28:06.649Z,45.01
2023-02-25T07:33:08.195Z,42.90
2023-02-25T07:38:12.660Z,43.39
2023-02-25T07:43:14.584Z,44.02
2023-02-25T07:48:16.048Z,43.48
2023-02-25T07:53:17.524Z,47.18
2023-02-25T07:58:18.988Z,43.33
2023-02-25T08:03:20.447Z,45.04
2023-02-25T08:08:22.081Z,44.94
2023-02-25T08:13:23.555Z,44.72
2023-02-25T08:18:25.019Z,43.99
2023-02-25T08:23:26.597Z,42.82
2023-02-25T08:28:31.782Z,40.94
2023-02-25T08:33:34.578Z,42.90
2023-02-25T08:38:37.555Z,42.66
2023-02-25T08:43:39.598Z,41.54
2023-02-25T08:48:41.055Z,46.94
2023-02-25T08:53:42.512Z,46.31
2023-02-25T08:58:43.985Z,45.76
2023-02-25T09:03:53.141Z,45.94
2023-02-25T09:08:55.418Z,46.12
2023-02-25T09:13:56.889Z,44.39
2023-02-25T09:18:58.354Z,42.95
2023-02-25T09:23:59.855Z,44.63
2023-02-25T09:29:02.128Z,45.20
2023-02-25T09:34:04.624Z,43.50
2023-02-25T09:39:10.323Z,42.98
2023-02-25T09:44:20.818Z,44.85
2023-02-25T09:49:35.095Z,44.50
2023-02-25T09:54:46.582Z,44.16
2023-02-25T09:59:48.279Z,43.00
2023-02-25T10:05:19.133Z,43.93
2023-02-25T10:10:25.918Z,41.67
2023-02-25T10:15:52.027Z,42.59
2023-02-25T10:21:11.769Z,41.17
2023-02-25T10:26:29.132Z,40.94
2023-02-25T10:31:31.277Z,39.54
2023-02-25T10:36:39.484Z,40.77
2023-02-25T10:41:40.937Z,39.25
2023-02-25T10:46:54.485Z,37.50
2023-02-25T10:52:03.415Z,40.52
2023-02-25T10:57:08.591Z,37.88
2023-02-25T11:02:30.153Z,38.97
2023-02-25T11:07:31.775Z,37.98
2023-02-25T11:12:40.609Z,38.18
2023-02-25T11:17:44.244Z,43.87
2023-02-25T11:22:46.617Z,40.63
2023-02-25T11:27:54.065Z,39.25
2023-02-25T11:32:55.933Z,43.75
2023-02-25T11:37:58.523Z,42.75
2023-02-25T11:43:05.729Z,46.58
2023-02-25T11:48:19.649Z,42.56
2023-02-25T11:53:24.182Z,39.14
2023-02-25T11:58:32.961Z,42.20
2023-02-25T12:04:09.615Z,40.33
2023-02-25T12:09:53.677Z,42.09
2023-02-25T12:15:18.942Z,40.39
2023-02-25T12:20:51.100Z,41.78
2023-02-25T12:26:07.934Z,41.78
2023-02-25T12:31:27.872Z,40.46
2023-02-25T12:36:47.291Z,37.86
2023-02-25T12:42:11.069Z,39.67
2023-02-25T12:47:49.352Z,38.67
2023-02-25T12:53:05.672Z,41.48
2023-02-25T12:58:53.180Z,39.61
2023-02-25T13:04:12.064Z,42.38
2023-02-25T13:09:31.756Z,41.92
2023-02-25T13:14:55.883Z,39.85
2023-02-25T13:20:24.994Z,41.28
2023-02-25T13:26:01.874Z,41.16
2023-02-25T13:31:24.556Z,39.67
2023-02-25T13:36:53.864Z,38.82
2023-02-25T13:42:15.735Z,38.47
2023-02-25T13:47:34.342Z,40.08
2023-02-25T13:53:07.431Z,40.57
2023-02-25T13:58:30.168Z,39.36
2023-02-25T14:03:41.167Z,44.68
2023-02-25T14:09:00.165Z,42.37
2023-02-25T14:14:07.464Z,40.78
2023-02-25T14:19:21.709Z,42.30
2023-02-25T14:24:37.648Z,38.08
2023-02-25T14:29:59.238Z,46.98
2023-02-25T14:35:28.308Z,44.58
2023-02-25T14:40:47.049Z,39.83
2023-02-25T14:45:52.025Z,36.86
2023-02-25T14:51:07.667Z,38.55
2023-02-25T14:56:20.181Z,41.84
2023-02-25T15:01:51.779Z,39.60
2023-02-25T15:07:11.787Z,41.68
2023-02-25T15:12:28.745Z,40.91
2023-02-25T15:18:02.279Z,41.75
2023-02-25T15:23:17.377Z,42.11
2023-02-25T15:28:30.865Z,44.60
2023-02-25T15:33:42.389Z,44.17
2023-02-25T15:38:47.623Z,43.13
2023-02-25T15:43:49.272Z,44.03
2023-02-25T15:49:42.581Z,45.06
2023-02-25T15:54:47.653Z,42.23
2023-02-25T15:59:57.675Z,42.50
2023-02-25T16:05:15.310Z,42.86
2023-02-25T16:10:30.372Z,42.57
2023-02-25T16:15:37.766Z,45.93
2023-02-25T16:20:46.435Z,49.87
2023-02-25T16:26:03.049Z,52.25
2023-02-25T16:31:29.302Z,52.29
2023-02-25T16:36:33.821Z,54.90
2023-02-25T16:41:38.512Z,53.54
2023-02-25T16:46:41.487Z,51.54
2023-02-25T16:51:43.494Z,48.37
2023-02-25T16:56:46.466Z,48.66
2023-02-25T17:01:55.142Z,48.56
2023-02-25T17:07:07.120Z,48.58
2023-02-25T17:12:10.836Z,47.46
2023-02-25T17:17:22.775Z,47.88
2023-02-25T17:22:24.396Z,47.08
2023-02-25T17:27:25.953Z,46.88
2023-02-25T17:32:28.873Z,44.71
2023-02-25T17:37:30.684Z,45.11
2023-02-25T17:42:34.243Z,51.41
2023-02-25T17:47:37.068Z,52.82
2023-02-25T17:52:38.533Z,52.68
2023-02-25T17:57:41.440Z,54.49
2023-02-25T18:02:46.104Z,51.00
2023-02-25T18:08:08.427Z,47.40
2023-02-25T18:13:18.718Z,45.91
2023-02-25T18:18:21.316Z,43.36
2023-02-25T18:23:25.852Z,45.52
2023-02-25T18:28:27.306Z,42.84
2023-02-25T18:33:28.770Z,44.92
2023-02-25T18:38:30.315Z,43.82
2023-02-25T18:43:34.443Z,44.16
2023-02-25T18:48:35.965Z,45.49
2023-02-25T18:53:37.428Z,43.37
2023-02-25T18:58:38.893Z,41.28
2023-02-25T19:03:40.368Z,39.73
2023-02-25T19:08:41.839Z,40.36
2023-02-25T19:13:43.311Z,41.62
2023-02-25T19:18:47.212Z,40.03
2023-02-25T19:23:51.700Z,38.74
2023-02-25T19:28:53.291Z,36.86
2023-02-25T19:33:54.742Z,35.32
2023-02-25T19:38:56.265Z,37.23
2023-02-25T19:43:57.772Z,37.40
2023-02-25T19:48:59.241Z,37.97
2023-02-25T19:54:00.725Z,36.95
2023-02-25T19:59:02.471Z,40.28
2023-02-25T20:04:04.614Z,40.10
2023-02-25T20:09:07.265Z,39.25
2023-02-25T20:14:08.727Z,41.41
2023-02-25T20:19:10.372Z,40.38
2023-02-25T20:24:11.950Z,37.94
2023-02-25T20:29:13.706Z,38.58
2023-02-25T20:34:18.073Z,43.63
2023-02-25T20:39:53.392Z,39.65
2023-02-25T20:44:54.914Z,41.59
2023-02-25T20:49:56.563Z,39.22
2023-02-25T20:54:58.243Z,39.17
2023-02-25T21:00:00.769Z,40.40
2023-02-25T21:05:02.492Z,39.93
2023-02-25T21:10:04.167Z,39.56
2023-02-25T21:15:05.992Z,39.27
2023-02-25T21:20:08.596Z,40.46
2023-02-25T21:25:10.134Z,43.46
2023-02-25T21:30:11.885Z,38.80
2023-02-25T21:35:13.351Z,40.36
2023-02-25T21:40:14.847Z,41.69
2023-02-25T21:45:16.313Z,37.48
2023-02-25T21:50:17.810Z,40.80
2023-02-25T21:55:19.280Z,37.33
2023-02-25T22:00:21.134Z,40.44
2023-02-25T22:05:22.603Z,39.80
2023-02-25T22:10:24.099Z,40.80
2023-02-25T22:15:25.558Z,39.81
2023-02-25T22:20:27.009Z,42.31
2023-02-25T22:25:28.715Z,41.47
2023-02-25T22:30:30.195Z,42.09
2023-02-25T22:35:31.678Z,39.40
2023-02-25T22:40:33.414Z,40.52
2023-02-25T22:45:34.865Z,42.55
2023-02-25T22:50:36.338Z,37.50
2023-02-25T22:55:37.803Z,40.02
2023-02-25T23:00:41.219Z,39.49
2023-02-25T23:05:42.700Z,40.82
2023-02-25T23:10:44.218Z,39.93
2023-02-25T23:15:47.401Z,40.72
2023-02-25T23:20:53.427Z,41.26
2023-02-25T23:25:54.917Z,39.96
2023-02-25T23:30:56.401Z,40.90
2023-02-25T23:35:58.480Z,39.43
2023-02-25T23:41:00.190Z,43.38
2023-02-25T23:46:05.227Z,41.17
2023-02-25T23:51:07.322Z,39.92
2023-02-25T23:56:10.120Z,45.47
